Terminal Aerodrome Forecast
Issued by NWS Tampa Bay Area, FL

Home | Current Version | Previous Version | Text Only | Print | Product List | Glossary On
Versions: 1 2 3 4 5 6 7 8 9 10 11 12
766
FTUS42 KTBW 131132
TAFFMY
TAF
KFMY 131132Z 1312/1412 30006KT P6SM SCT025
     FM131500 35009KT P6SM FEW025
     FM131700 36011G17KT P6SM SKC
     FM140000 02009KT P6SM SKC=

USA.gov is the U.S. government's official web portal to all federal, state and local government web resources and services.